Station: Montague Island  

  Atmospheric Gas Attenuation - ITU Rec 676-11   ----------------- dB/100km -----------------
Date Time Temp RH % AH g/m3 Dew Point Wind Direction Speed kph Gust kph Barometer mB Rainfall Since 9am 24GHz 47GHz 76GHz 122GHz 134GHz 241GHz
02/09 19:40 15.9 87 11.78 13.7 20 26 1011.9 0 26.3 30.5 51.8 136.6 138.8 480.0
02/09 19:30 16 87 11.85 13.8 22 26 1011.7 0 26.4 30.6 52.1 137.2 139.6 482.8
02/09 19:20 16.2 87 12 14 20 24 1011.7 0 26.7 30.8 52.6 138.6 141.4 489.0
02/09 19:10 16.1 86 11.79 13.8 22 26 1011.7 0 26.3 30.5 51.7 136.3 138.6 479.2
02/09 19:00 16.2 86 11.86 13.9 24 30 1011.5 0 26.4 30.5 52.0 136.9 139.4 482.0
02/09 18:50 16.3 87 12.07 14.1 24 30 1011.5 0 26.9 30.9 52.8 139.2 142.2 491.8
02/09 18:40 16.4 87 12.14 14.2 24 28 1011.5 0 27.0 31.0 53.0 139.8 143.0 494.7
02/09 18:30 16.4 87 12.14 14.2 24 28 1011.3 0 27.0 31.0 53.0 139.8 143.0 494.6
02/09 18:20 16.4 87 12.14 14.2 22 26 1011.3 0 27.0 31.0 53.0 139.8 143.0 494.6
02/09 18:10 16.5 87 12.22 14.3 22 28 1011.4 0 27.2 31.1 53.3 140.6 143.9 498.0
02/09 18:00 16.6 87 12.29 14.4 24 30 1011.3 0 27.3 31.2 53.6 141.2 144.7 500.9
02/09 17:50 16.6 87 12.29 14.4 26 30 1011.2 0 27.3 31.2 53.6 141.2 144.7 500.8
02/09 17:40 16.8 87 12.44 14.6 26 30 1011.1 0 27.6 31.3 54.1 142.6 146.5 507.0
02/09 17:30 16.7 87 12.36 14.5 28 32 1010.9 0 27.5 31.2 53.8 141.8 145.5 503.6
02/09 17:20 16.9 86 12.37 14.5 28 32 1010.7 0 27.5 31.2 53.7 141.5 145.3 502.7
02/09 17:10 17.1 86 12.52 14.7 28 35 1010.8 0 27.8 31.4 54.2 142.9 147.0 508.9
02/09 17:00 17.2 85 12.45 14.7 30 35 1010.6 0 27.6 31.2 53.8 141.9 145.8 504.7
02/09 16:50 17.3 85 12.52 14.8 30 39 1010.5 0 27.8 31.3 54.0 142.5 146.6 507.5
02/09 16:40 17.6 83 12.45 14.7 32 39 1010.4 0 27.6 31.0 53.5 141.1 145.0 502.0
02/09 16:30 17.7 83 12.52 14.8 33 41 1010.2 0 27.8 31.1 53.7 141.7 145.8 504.7
02/09 16:20 17.9 83 12.67 15 35 43 1010.1 0 28.1 31.3 54.3 143.1 147.6 510.8
02/09 16:10 18.1 81 12.51 14.9 35 41 1010.1 0 27.7 31.0 53.4 140.9 144.9 501.6
02/09 16:00 18.6 80 12.73 15.1 32 43 1009.8 0 28.2 31.1 54.0 142.4 147.0 509.1
02/09 15:50 19.9 72 12.37 14.7 24 33 1009.8 0 27.3 30.1 51.6 136.0 139.6 483.2
02/09 15:40 19.6 67 11.31 13.3 22 32 1010 0 25.1 28.4 47.4 124.9 125.7 434.8
02/09 15:30 20 64 11.06 13 17 20 1009.5 0 24.5 27.9 46.1 121.5 121.7 420.9
02/09 15:20 19.6 71 11.98 14.2 17 22 1009.5 0 26.5 29.5 50.1 132.2 134.7 466.3
02/09 15:10 20.2 65 11.36 13.4 20 26 1009.6 0 25.1 28.3 47.2 124.4 125.4 433.7
02/09 15:00 20.2 65 11.36 13.4 19 26 1009.6 0 25.1 28.3 47.2 124.4 125.4 433.7
02/09 14:50 20.3 64 11.25 13.3 20 28 1009.6 0 24.9 28.1 46.7 123.1 123.8 428.1
02/09 14:40 20.4 64 11.32 13.4 19 26 1009.6 0 25.0 28.2 47.0 123.7 124.5 430.7
02/09 14:30 20.4 65 11.5 13.6 22 32 1009.6 0 25.4 28.4 47.7 125.6 126.9 439.1
02/09 14:20 20.3 64 11.25 13.3 24 33 1009.6 0 24.9 28.1 46.7 123.1 123.8 428.1
02/09 14:10 20.1 66 11.47 13.7 20 24 1009.6 0 25.4 28.5 47.7 125.8 127.0 439.4
02/09 14:00 20.4 64 11.32 13.4 24 30 1009.6 0 25.0 28.2 47.0 123.7 124.5 430.7
02/09 13:50 21.3 53 9.88 11.3 26 30 1009.6 0 21.9 25.6 40.8 107.4 104.7 361.7
02/09 13:40 20.1 67 11.65 13.8 26 35 1009.6 0 25.8 28.8 48.5 127.7 129.4 447.8
02/09 13:30 19.9 69 11.85 14 26 33 1009.7 0 26.2 29.2 49.4 130.2 132.5 458.4
02/09 13:20 20.3 69 12.13 14.4 26 33 1010 0 26.8 29.5 50.3 132.7 135.6 469.4
02/09 13:10 20.1 68 11.82 14 26 28 1010.2 0 26.1 29.1 49.2 129.6 131.8 456.0
02/09 13:00 20 67 11.58 13.7 30 33 1010.3 0 25.6 28.7 48.3 127.2 128.7 445.3
02/09 12:50 20.6 57 10.2 11.8 28 37 1010.5 0 22.6 26.3 42.5 111.7 109.8 379.3
02/09 12:40 21 58 10.62 12.4 28 39 1010.7 0 23.5 26.9 43.9 115.5 114.6 396.1
02/09 12:30 20.2 65 11.36 13.4 26 32 1010.9 0 25.1 28.3 47.3 124.6 125.5 434.1
02/09 12:20 20.9 61 11.11 13.1 22 32 1011.1 0 24.6 27.7 45.9 120.8 121.1 418.9
02/09 12:10 20.7 59 10.62 12.4 26 33 1011.3 0 23.5 27.0 44.1 116.0 115.1 397.8
02/09 12:00 21.2 56 10.38 12.1 30 35 1011.5 0 23.0 26.5 42.9 112.8 111.3 384.7
02/09 11:50 20.7 59 10.62 12.4 28 32 1011.7 0 23.5 27.0 44.1 116.0 115.1 397.9
02/09 11:40 20.7 57 10.26 11.9 28 32 1012 0 22.8 26.5 42.7 112.3 110.6 381.9
02/09 11:30 20.7 56 10.08 11.6 24 33 1012.1 0 22.4 26.2 42.0 110.5 108.3 374.0
02/09 11:20 20.7 58 10.44 12.1 20 30 1012.3 0 23.1 26.8 43.4 114.2 112.9 390.1
02/09 11:10 20.9 59 10.74 12.6 22 32 1012.5 0 23.8 27.2 44.5 117.1 116.5 402.6
02/09 11:00 20.6 57 10.2 11.8 20 28 1012.6 0 22.6 26.4 42.6 111.9 110.0 379.9
02/09 10:50 20.9 55 10.02 11.5 20 26 1012.6 0 22.2 26.1 41.7 109.6 107.3 370.5
02/09 10:40 20.8 57 10.32 12 19 26 1012.8 0 22.9 26.6 42.9 112.9 111.2 384.4
02/09 10:30 21 56 10.26 11.9 19 26 1012.8 0 22.7 26.4 42.6 112.0 110.2 380.7
02/09 10:20 20.4 61 10.79 12.6 19 26 1012.9 0 23.9 27.4 45.0 118.4 117.9 407.5
02/09 10:10 19.9 64 10.99 12.9 19 24 1013 0 24.4 27.9 46.1 121.3 121.3 419.4
02/09 10:00 19.8 62 10.59 12.5 20 24 1013 0 23.5 27.3 44.5 117.2 116.2 401.6
02/09 09:50 19.9 64 10.99 12.9 20 30 1013.1 0 24.4 27.9 46.1 121.3 121.3 419.4
02/09 09:40 19.7 62 10.53 12.2 19 28 1013.1 0 23.4 27.2 44.4 116.7 115.6 399.4
02/09 09:30 19.1 68 11.15 13.1 17 24 1013.3 0 24.7 28.4 47.2 124.3 124.7 431.2
02/09 09:20 19.3 68 11.28 13.3 19 24 1013.4 0 25.0 28.6 47.6 125.4 126.2 436.3
02/09 09:10 19.3 59 9.79 11.1 20 28 1013.4 0 21.8 26.2 41.7 109.6 106.6 368.0
02/09 09:00 18.8 62 9.98 11.4 19 24 1013.4 0 22.3 26.6 42.7 112.3 109.8 378.9
02/09 08:50 18.8 68 10.95 12.8 19 26 1013.5 0 24.3 28.2 46.6 122.6 122.5 423.6
02/09 08:40 18.1 69 10.66 12.3 22 30 1013.4 0 23.8 28.0 45.8 120.6 119.8 413.7
02/09 08:30 18.2 71 11.03 12.9 19 24 1013.6 0 24.5 28.5 47.3 124.5 124.6 430.7
02/09 08:20 18.1 66 10.2 11.7 20 24 1013.5 0 22.8 27.2 44.0 115.6 113.7 392.4
02/09 08:10 17.9 67 10.23 11.7 19 24 1013.6 0 22.9 27.3 44.2 116.2 114.4 394.8
02/09 08:00 17.9 68 10.38 11.9 20 30 1013.5 0 23.2 27.6 44.8 117.8 116.3 401.8
02/09 07:50 17.8 69 10.47 12 24 32 1013.4 0 23.4 27.7 45.2 118.9 117.7 406.4
02/09 07:40 17.7 69 10.41 11.9 22 30 1013.3 0 23.2 27.7 45.0 118.4 117.0 404.1
02/09 07:30 17.9 70 10.69 12.4 22 30 1013.2 0 23.8 28.1 46.0 121.2 120.4 416.1
02/09 07:20 17.9 69 10.53 12.1 24 32 1013.1 0 23.5 27.8 45.4 119.4 118.3 408.6
02/09 07:10 18.1 65 10.04 11.4 26 32 1013 0 22.4 26.9 43.3 113.8 111.5 384.9
02/09 07:00 18 64 9.83 11.1 26 32 1012.9 0 22.0 26.6 42.5 111.7 108.9 375.8
02/09 06:50 18 61 9.37 10.4 22 30 1012.8 0 21.0 25.9 40.7 106.9 102.9 355.0
02/09 06:40 17.6 65 9.75 10.9 22 28 1012.9 0 21.8 26.6 42.4 111.5 108.4 374.0
02/09 06:30 17.4 65 9.63 10.8 20 24 1012.9 0 21.6 26.5 42.0 110.5 107.1 369.5
02/09 06:20 17.3 68 10.02 11.3 19 20 1012.9 0 22.4 27.1 43.6 114.8 112.4 387.9
02/09 06:10 17.5 67 9.99 11.3 15 17 1012.9 0 22.4 27.0 43.4 114.2 111.7 385.5
02/09 06:00 17.5 63 9.39 10.4 15 17 1012.8 0 21.1 26.1 41.0 107.8 103.9 358.1
02/09 05:50 17.2 71 10.4 11.9 15 17 1012.7 0 23.3 27.8 45.2 119.0 117.6 406.1
02/09 05:40 17.5 71 10.58 12.2 13 15 1012.7 0 23.6 28.0 45.8 120.5 119.5 412.9
02/09 05:30 17.8 68 10.32 11.8 13 17 1012.8 0 23.1 27.5 44.6 117.3 115.6 399.3
02/09 05:20 18.3 64 10.01 11.4 17 20 1013 0 22.4 26.8 43.1 113.2 110.8 382.6
02/09 05:10 18.4 61 9.59 10.8 19 22 1012.9 0 21.5 26.1 41.4 108.7 105.2 363.1
02/09 05:00 18.4 62 9.75 11 19 24 1012.8 0 21.8 26.4 42.0 110.3 107.3 370.2
02/09 04:50 18.1 65 10.04 11.4 20 24 1012.7 0 22.4 26.9 43.3 113.8 111.5 384.8
02/09 04:40 18 70 10.75 12.5 19 22 1012.7 0 24.0 28.1 46.2 121.6 121.0 418.3
02/09 04:30 18.5 63 9.97 11.3 19 24 1012.6 0 22.3 26.7 42.8 112.5 110.0 379.7
02/09 04:20 18.6 59 9.39 10.4 20 28 1012.5 0 21.0 25.7 40.5 106.3 102.4 353.1
02/09 04:10 18.9 58 9.4 10.5 26 33 1012.4 0 21.0 25.7 40.3 106.0 102.1 352.2
02/09 04:00 18.9 58 9.4 10.5 24 32 1012.5 0 21.0 25.7 40.3 106.0 102.1 352.2
02/09 03:50 19.1 57 9.34 10.4 26 33 1012.4 0 20.9 25.5 40.0 105.1 101.1 348.6
02/09 03:40 19.2 56 9.23 10.2 26 35 1012.5 0 20.7 25.3 39.5 103.9 99.6 343.4
02/09 03:30 19.1 58 9.51 10.6 28 37 1012.5 0 21.3 25.8 40.7 106.9 103.3 356.2
02/09 03:20 19.1 59 9.67 10.9 28 35 1012.7 0 21.6 26.0 41.3 108.5 105.3 363.4
02/09 03:10 19.2 58 9.56 10.7 28 35 1012.9 0 21.4 25.8 40.8 107.3 103.8 358.1

Last Refresh: 02-Sep-2026 19:13:55

Bureau of Meteorology